sensor_id;sensor_type;location;lat;lon;timestamp;temperature;humidity
921;DHT22;447;51.332;6.778;2023-02-23T00:02:05;11.30;99.90
921;DHT22;447;51.332;6.778;2023-02-23T00:04:32;11.20;99.90
921;DHT22;447;51.332;6.778;2023-02-23T00:07:00;11.20;99.90
921;DHT22;447;51.332;6.778;2023-02-23T00:09:26;11.20;99.90
921;DHT22;447;51.332;6.778;2023-02-23T00:12:03;11.30;99.90
921;DHT22;447;51.332;6.778;2023-02-23T00:14:33;11.20;99.90
921;DHT22;447;51.332;6.778;2023-02-23T00:16:59;11.20;99.90
921;DHT22;447;51.332;6.778;2023-02-23T00:19:26;11.30;99.90
921;DHT22;447;51.332;6.778;2023-02-23T00:21:54;11.20;99.90
921;DHT22;447;51.332;6.778;2023-02-23T00:24:23;11.20;99.90
921;DHT22;447;51.332;6.778;2023-02-23T00:26:54;11.30;99.90
921;DHT22;447;51.332;6.778;2023-02-23T00:29:23;11.20;99.90
921;DHT22;447;51.332;6.778;2023-02-23T00:31:55;11.20;99.90
921;DHT22;447;51.332;6.778;2023-02-23T00:34:21;11.20;99.90
921;DHT22;447;51.332;6.778;2023-02-23T00:36:51;11.20;99.90
921;DHT22;447;51.332;6.778;2023-02-23T00:39:22;11.20;99.90
921;DHT22;447;51.332;6.778;2023-02-23T00:41:55;11.20;99.90
921;DHT22;447;51.332;6.778;2023-02-23T00:44:23;11.20;99.90
921;DHT22;447;51.332;6.778;2023-02-23T00:46:54;11.20;99.90
921;DHT22;447;51.332;6.778;2023-02-23T00:49:25;11.20;99.90
921;DHT22;447;51.332;6.778;2023-02-23T00:51:52;11.20;99.90
921;DHT22;447;51.332;6.778;2023-02-23T00:54:20;11.20;99.90
921;DHT22;447;51.332;6.778;2023-02-23T00:56:49;11.20;99.90
921;DHT22;447;51.332;6.778;2023-02-23T00:59:15;11.20;99.90
921;DHT22;447;51.332;6.778;2023-02-23T01:01:44;11.20;99.90
921;DHT22;447;51.332;6.778;2023-02-23T01:04:12;11.20;99.90
921;DHT22;447;51.332;6.778;2023-02-23T01:06:39;11.20;99.90
921;DHT22;447;51.332;6.778;2023-02-23T01:09:12;11.20;99.90
921;DHT22;447;51.332;6.778;2023-02-23T01:11:44;11.20;99.90
921;DHT22;447;51.332;6.778;2023-02-23T01:14:15;11.20;99.90
921;DHT22;447;51.332;6.778;2023-02-23T01:16:41;11.20;99.90
921;DHT22;447;51.332;6.778;2023-02-23T01:19:09;11.20;99.90
921;DHT22;447;51.332;6.778;2023-02-23T01:21:37;11.20;99.90
921;DHT22;447;51.332;6.778;2023-02-23T01:24:05;11.20;99.90
921;DHT22;447;51.332;6.778;2023-02-23T01:26:41;11.20;99.90
921;DHT22;447;51.332;6.778;2023-02-23T01:29:13;11.20;99.90
921;DHT22;447;51.332;6.778;2023-02-23T01:31:43;11.20;99.90
921;DHT22;447;51.332;6.778;2023-02-23T01:34:12;11.20;99.90
921;DHT22;447;51.332;6.778;2023-02-23T01:36:42;11.20;99.90
921;DHT22;447;51.332;6.778;2023-02-23T01:39:13;11.20;99.90
921;DHT22;447;51.332;6.778;2023-02-23T01:41:42;11.20;99.90
921;DHT22;447;51.332;6.778;2023-02-23T01:46:40;11.20;99.90
921;DHT22;447;51.332;6.778;2023-02-23T01:49:44;11.20;99.90
921;DHT22;447;51.332;6.778;2023-02-23T01:52:09;11.20;99.90
921;DHT22;447;51.332;6.778;2023-02-23T01:54:38;11.10;99.90
921;DHT22;447;51.332;6.778;2023-02-23T01:57:05;11.10;99.90
921;DHT22;447;51.332;6.778;2023-02-23T01:59:37;11.20;99.90
921;DHT22;447;51.332;6.778;2023-02-23T02:02:06;11.10;99.90
921;DHT22;447;51.332;6.778;2023-02-23T02:04:39;11.10;99.90
921;DHT22;447;51.332;6.778;2023-02-23T02:09:46;11.10;99.90
921;DHT22;447;51.332;6.778;2023-02-23T02:12:32;11.10;99.90
921;DHT22;447;51.332;6.778;2023-02-23T02:15:02;11.10;99.90
921;DHT22;447;51.332;6.778;2023-02-23T02:40:17;11.10;99.90
921;DHT22;447;51.332;6.778;2023-02-23T02:45:36;11.10;99.90
921;DHT22;447;51.332;6.778;2023-02-23T02:48:14;11.10;99.90
921;DHT22;447;51.332;6.778;2023-02-23T02:53:25;11.10;99.90
921;DHT22;447;51.332;6.778;2023-02-23T02:55:54;11.10;99.90
921;DHT22;447;51.332;6.778;2023-02-23T02:58:27;11.10;99.90
921;DHT22;447;51.332;6.778;2023-02-23T03:00:54;11.10;99.90
921;DHT22;447;51.332;6.778;2023-02-23T03:03:42;11.10;99.90
921;DHT22;447;51.332;6.778;2023-02-23T03:06:43;11.10;99.90
921;DHT22;447;51.332;6.778;2023-02-23T03:12:32;11.10;99.90
921;DHT22;447;51.332;6.778;2023-02-23T03:21:16;11.10;99.90
921;DHT22;447;51.332;6.778;2023-02-23T03:27:28;11.00;99.90
921;DHT22;447;51.332;6.778;2023-02-23T03:30:28;11.10;99.90
921;DHT22;447;51.332;6.778;2023-02-23T03:33:34;11.00;99.90
921;DHT22;447;51.332;6.778;2023-02-23T03:36:25;11.00;99.90
921;DHT22;447;51.332;6.778;2023-02-23T03:39:19;11.00;99.90
921;DHT22;447;51.332;6.778;2023-02-23T03:42:09;11.00;99.90
921;DHT22;447;51.332;6.778;2023-02-23T03:44:57;11.00;99.90
921;DHT22;447;51.332;6.778;2023-02-23T03:47:44;11.00;99.90
921;DHT22;447;51.332;6.778;2023-02-23T03:50:46;11.00;99.90
921;DHT22;447;51.332;6.778;2023-02-23T03:53:41;11.00;99.90
921;DHT22;447;51.332;6.778;2023-02-23T03:56:29;11.00;99.90
921;DHT22;447;51.332;6.778;2023-02-23T03:59:19;11.00;99.90
921;DHT22;447;51.332;6.778;2023-02-23T04:02:07;11.00;99.90
921;DHT22;447;51.332;6.778;2023-02-23T04:04:56;11.00;99.90
921;DHT22;447;51.332;6.778;2023-02-23T04:07:45;11.00;99.90
921;DHT22;447;51.332;6.778;2023-02-23T04:10:32;11.00;99.90
921;DHT22;447;51.332;6.778;2023-02-23T04:13:21;11.00;99.90
921;DHT22;447;51.332;6.778;2023-02-23T04:16:21;11.00;99.90
921;DHT22;447;51.332;6.778;2023-02-23T04:18:52;11.00;99.90
921;DHT22;447;51.332;6.778;2023-02-23T04:21:21;11.00;99.90
921;DHT22;447;51.332;6.778;2023-02-23T04:23:47;11.00;99.90
921;DHT22;447;51.332;6.778;2023-02-23T04:26:13;11.00;99.90
921;DHT22;447;51.332;6.778;2023-02-23T04:28:41;11.00;99.90
921;DHT22;447;51.332;6.778;2023-02-23T04:31:09;11.00;99.90
921;DHT22;447;51.332;6.778;2023-02-23T04:33:36;11.00;99.90
921;DHT22;447;51.332;6.778;2023-02-23T04:36:07;11.00;99.90
921;DHT22;447;51.332;6.778;2023-02-23T04:38:38;11.00;99.90
921;DHT22;447;51.332;6.778;2023-02-23T04:41:04;11.00;99.90
921;DHT22;447;51.332;6.778;2023-02-23T04:43:30;11.00;99.90
921;DHT22;447;51.332;6.778;2023-02-23T04:46:01;11.00;99.90
921;DHT22;447;51.332;6.778;2023-02-23T04:48:27;11.00;99.90
921;DHT22;447;51.332;6.778;2023-02-23T04:50:55;11.00;99.90
921;DHT22;447;51.332;6.778;2023-02-23T04:53:21;11.00;99.90
921;DHT22;447;51.332;6.778;2023-02-23T04:55:50;11.00;99.90
921;DHT22;447;51.332;6.778;2023-02-23T04:58:16;11.00;99.90
921;DHT22;447;51.332;6.778;2023-02-23T05:00:44;11.00;99.90
921;DHT22;447;51.332;6.778;2023-02-23T05:03:15;11.00;99.90
921;DHT22;447;51.332;6.778;2023-02-23T05:05:47;11.00;99.90
921;DHT22;447;51.332;6.778;2023-02-23T05:08:13;11.00;99.90
921;DHT22;447;51.332;6.778;2023-02-23T05:10:38;11.00;99.90
921;DHT22;447;51.332;6.778;2023-02-23T05:13:07;11.00;99.90
921;DHT22;447;51.332;6.778;2023-02-23T05:15:35;11.00;99.90
921;DHT22;447;51.332;6.778;2023-02-23T05:18:05;11.00;99.90
921;DHT22;447;51.332;6.778;2023-02-23T05:20:36;10.90;99.90
921;DHT22;447;51.332;6.778;2023-02-23T05:23:04;10.90;99.90
921;DHT22;447;51.332;6.778;2023-02-23T05:25:32;10.90;99.90
921;DHT22;447;51.332;6.778;2023-02-23T05:28:01;11.00;99.90
921;DHT22;447;51.332;6.778;2023-02-23T05:30:27;11.00;99.90
921;DHT22;447;51.332;6.778;2023-02-23T05:32:55;11.00;99.90
921;DHT22;447;51.332;6.778;2023-02-23T05:35:24;11.00;99.90
921;DHT22;447;51.332;6.778;2023-02-23T05:37:54;10.90;99.90
921;DHT22;447;51.332;6.778;2023-02-23T05:40:20;10.90;99.90
921;DHT22;447;51.332;6.778;2023-02-23T05:42:46;10.90;99.90
921;DHT22;447;51.332;6.778;2023-02-23T05:45:12;11.00;99.90
921;DHT22;447;51.332;6.778;2023-02-23T05:47:41;10.90;99.90
921;DHT22;447;51.332;6.778;2023-02-23T05:50:09;11.00;99.90
921;DHT22;447;51.332;6.778;2023-02-23T05:52:40;10.90;99.90
921;DHT22;447;51.332;6.778;2023-02-23T05:55:08;10.90;99.90
921;DHT22;447;51.332;6.778;2023-02-23T05:57:37;11.00;99.90
921;DHT22;447;51.332;6.778;2023-02-23T06:00:05;10.90;99.90
921;DHT22;447;51.332;6.778;2023-02-23T06:02:31;10.90;99.90
921;DHT22;447;51.332;6.778;2023-02-23T06:05:01;10.90;99.90
921;DHT22;447;51.332;6.778;2023-02-23T06:07:29;10.90;99.90
921;DHT22;447;51.332;6.778;2023-02-23T06:10:00;10.90;99.90
921;DHT22;447;51.332;6.778;2023-02-23T06:12:29;10.90;99.90
921;DHT22;447;51.332;6.778;2023-02-23T06:14:55;10.90;99.90
921;DHT22;447;51.332;6.778;2023-02-23T06:17:24;10.90;99.90
921;DHT22;447;51.332;6.778;2023-02-23T06:19:52;10.90;99.90
921;DHT22;447;51.332;6.778;2023-02-23T06:22:18;10.90;99.90
921;DHT22;447;51.332;6.778;2023-02-23T06:24:44;10.90;99.90
921;DHT22;447;51.332;6.778;2023-02-23T06:27:10;10.90;99.90
921;DHT22;447;51.332;6.778;2023-02-23T06:29:36;10.90;99.90
921;DHT22;447;51.332;6.778;2023-02-23T06:32:05;10.90;99.90
921;DHT22;447;51.332;6.778;2023-02-23T06:34:31;10.90;99.90
921;DHT22;447;51.332;6.778;2023-02-23T06:37:01;10.90;99.90
921;DHT22;447;51.332;6.778;2023-02-23T06:39:29;10.90;99.90
921;DHT22;447;51.332;6.778;2023-02-23T06:41:55;10.90;99.90
921;DHT22;447;51.332;6.778;2023-02-23T06:44:21;10.90;99.90
921;DHT22;447;51.332;6.778;2023-02-23T06:46:54;10.90;99.90
921;DHT22;447;51.332;6.778;2023-02-23T06:49:22;10.90;99.90
921;DHT22;447;51.332;6.778;2023-02-23T06:51:48;10.90;99.90
921;DHT22;447;51.332;6.778;2023-02-23T06:54:17;10.90;99.90
921;DHT22;447;51.332;6.778;2023-02-23T06:56:45;10.90;99.90
921;DHT22;447;51.332;6.778;2023-02-23T06:59:11;10.90;99.90
921;DHT22;447;51.332;6.778;2023-02-23T07:01:37;10.90;99.90
921;DHT22;447;51.332;6.778;2023-02-23T07:04:10;10.90;99.90
921;DHT22;447;51.332;6.778;2023-02-23T07:06:38;10.90;99.90
921;DHT22;447;51.332;6.778;2023-02-23T07:09:04;10.90;99.90
921;DHT22;447;51.332;6.778;2023-02-23T07:11:35;10.90;99.90
921;DHT22;447;51.332;6.778;2023-02-23T07:14:03;10.90;99.90
921;DHT22;447;51.332;6.778;2023-02-23T07:16:29;10.90;99.90
921;DHT22;447;51.332;6.778;2023-02-23T07:18:57;10.80;99.90
921;DHT22;447;51.332;6.778;2023-02-23T07:21:29;10.90;99.90
921;DHT22;447;51.332;6.778;2023-02-23T07:23:57;10.80;99.90
921;DHT22;447;51.332;6.778;2023-02-23T07:26:26;10.80;99.90
921;DHT22;447;51.332;6.778;2023-02-23T07:28:54;10.80;99.90
921;DHT22;447;51.332;6.778;2023-02-23T07:31:25;10.80;99.90
921;DHT22;447;51.332;6.778;2023-02-23T07:33:54;10.80;99.90
921;DHT22;447;51.332;6.778;2023-02-23T07:36:25;10.80;99.90
921;DHT22;447;51.332;6.778;2023-02-23T07:38:53;10.80;99.90
921;DHT22;447;51.332;6.778;2023-02-23T07:41:20;10.80;99.90
921;DHT22;447;51.332;6.778;2023-02-23T07:43:47;10.80;99.90
921;DHT22;447;51.332;6.778;2023-02-23T07:46:15;10.80;99.90
921;DHT22;447;51.332;6.778;2023-02-23T07:48:45;10.80;99.90
921;DHT22;447;51.332;6.778;2023-02-23T07:51:18;10.80;99.90
921;DHT22;447;51.332;6.778;2023-02-23T07:53:45;10.80;99.90
921;DHT22;447;51.332;6.778;2023-02-23T07:56:13;10.80;99.90
921;DHT22;447;51.332;6.778;2023-02-23T07:58:41;10.80;99.90
921;DHT22;447;51.332;6.778;2023-02-23T08:01:14;10.80;99.90
921;DHT22;447;51.332;6.778;2023-02-23T08:03:40;10.80;99.90
921;DHT22;447;51.332;6.778;2023-02-23T08:06:15;10.80;99.90
921;DHT22;447;51.332;6.778;2023-02-23T08:08:47;10.80;99.90
921;DHT22;447;51.332;6.778;2023-02-23T08:11:14;10.80;99.90
921;DHT22;447;51.332;6.778;2023-02-23T08:13:40;10.80;99.90
921;DHT22;447;51.332;6.778;2023-02-23T08:16:06;10.80;99.90
921;DHT22;447;51.332;6.778;2023-02-23T08:18:37;10.80;99.90
921;DHT22;447;51.332;6.778;2023-02-23T08:21:05;10.80;99.90
921;DHT22;447;51.332;6.778;2023-02-23T08:23:34;10.80;99.90
921;DHT22;447;51.332;6.778;2023-02-23T08:26:03;10.80;99.90
921;DHT22;447;51.332;6.778;2023-02-23T08:28:32;10.80;99.90
921;DHT22;447;51.332;6.778;2023-02-23T08:30:58;10.80;99.90
921;DHT22;447;51.332;6.778;2023-02-23T08:33:28;10.80;99.90
921;DHT22;447;51.332;6.778;2023-02-23T08:36:00;10.80;99.90
921;DHT22;447;51.332;6.778;2023-02-23T08:38:27;10.80;99.90
921;DHT22;447;51.332;6.778;2023-02-23T08:40:59;10.80;99.90
921;DHT22;447;51.332;6.778;2023-02-23T08:43:31;10.80;99.90
921;DHT22;447;51.332;6.778;2023-02-23T08:45:59;10.80;99.90
921;DHT22;447;51.332;6.778;2023-02-23T08:48:28;10.80;99.90
921;DHT22;447;51.332;6.778;2023-02-23T08:50:57;10.80;99.90
921;DHT22;447;51.332;6.778;2023-02-23T08:53:24;10.80;99.90
921;DHT22;447;51.332;6.778;2023-02-23T08:56:05;10.80;99.90
921;DHT22;447;51.332;6.778;2023-02-23T08:58:34;10.80;99.90
921;DHT22;447;51.332;6.778;2023-02-23T09:01:04;10.80;99.90
921;DHT22;447;51.332;6.778;2023-02-23T09:03:35;10.80;99.90
921;DHT22;447;51.332;6.778;2023-02-23T09:06:10;10.80;99.90
921;DHT22;447;51.332;6.778;2023-02-23T09:08:36;10.80;99.90
921;DHT22;447;51.332;6.778;2023-02-23T09:11:06;10.80;99.90
921;DHT22;447;51.332;6.778;2023-02-23T09:13:32;10.80;99.90
921;DHT22;447;51.332;6.778;2023-02-23T09:15:58;10.80;99.90
921;DHT22;447;51.332;6.778;2023-02-23T09:18:24;10.80;99.90
921;DHT22;447;51.332;6.778;2023-02-23T09:20:54;10.80;99.90
921;DHT22;447;51.332;6.778;2023-02-23T09:23:22;10.80;99.90
921;DHT22;447;51.332;6.778;2023-02-23T09:25:51;10.80;99.90
921;DHT22;447;51.332;6.778;2023-02-23T09:28:19;10.80;99.90
921;DHT22;447;51.332;6.778;2023-02-23T09:30:46;10.80;99.90
921;DHT22;447;51.332;6.778;2023-02-23T09:33:13;10.80;99.90
921;DHT22;447;51.332;6.778;2023-02-23T09:35:39;10.80;99.90
921;DHT22;447;51.332;6.778;2023-02-23T09:38:06;10.80;99.90
921;DHT22;447;51.332;6.778;2023-02-23T09:40:50;10.80;99.90
921;DHT22;447;51.332;6.778;2023-02-23T09:43:43;10.80;99.90
921;DHT22;447;51.332;6.778;2023-02-23T09:49:07;10.80;99.90
921;DHT22;447;51.332;6.778;2023-02-23T09:51:40;10.80;99.90
921;DHT22;447;51.332;6.778;2023-02-23T09:54:12;10.80;99.90
921;DHT22;447;51.332;6.778;2023-02-23T09:56:47;10.80;99.90
921;DHT22;447;51.332;6.778;2023-02-23T09:59:20;10.80;99.90
921;DHT22;447;51.332;6.778;2023-02-23T10:10:27;10.80;99.90
921;DHT22;447;51.332;6.778;2023-02-23T10:18:29;10.80;99.90
921;DHT22;447;51.332;6.778;2023-02-23T10:21:14;10.80;99.90
921;DHT22;447;51.332;6.778;2023-02-23T10:23:52;10.80;99.90
921;DHT22;447;51.332;6.778;2023-02-23T10:26:28;10.80;99.90
921;DHT22;447;51.332;6.778;2023-02-23T10:29:03;10.80;99.90
921;DHT22;447;51.332;6.778;2023-02-23T10:31:45;10.80;99.90
921;DHT22;447;51.332;6.778;2023-02-23T10:34:15;10.80;99.90
921;DHT22;447;51.332;6.778;2023-02-23T10:36:51;10.80;99.90
921;DHT22;447;51.332;6.778;2023-02-23T10:39:20;10.80;99.90
921;DHT22;447;51.332;6.778;2023-02-23T10:41:46;10.80;99.90
921;DHT22;447;51.332;6.778;2023-02-23T10:44:23;10.80;99.90
921;DHT22;447;51.332;6.778;2023-02-23T10:47:14;10.80;99.90
921;DHT22;447;51.332;6.778;2023-02-23T10:52:20;10.80;99.90
921;DHT22;447;51.332;6.778;2023-02-23T10:54:50;10.80;99.90
921;DHT22;447;51.332;6.778;2023-02-23T10:57:20;10.80;99.90
921;DHT22;447;51.332;6.778;2023-02-23T11:02:42;10.80;99.90
921;DHT22;447;51.332;6.778;2023-02-23T11:10:41;10.80;99.90
921;DHT22;447;51.332;6.778;2023-02-23T11:13:42;10.80;99.90
921;DHT22;447;51.332;6.778;2023-02-23T11:16:22;10.80;99.90
921;DHT22;447;51.332;6.778;2023-02-23T11:18:57;10.80;99.90
921;DHT22;447;51.332;6.778;2023-02-23T11:21:29;10.80;99.90
921;DHT22;447;51.332;6.778;2023-02-23T11:24:20;10.80;99.90
921;DHT22;447;51.332;6.778;2023-02-23T11:26:49;10.80;99.90
921;DHT22;447;51.332;6.778;2023-02-23T11:29:33;10.80;99.90
921;DHT22;447;51.332;6.778;2023-02-23T11:32:06;10.80;99.90
921;DHT22;447;51.332;6.778;2023-02-23T11:34:38;10.80;99.90
921;DHT22;447;51.332;6.778;2023-02-23T11:39:54;10.80;99.90
921;DHT22;447;51.332;6.778;2023-02-23T11:42:28;10.80;99.90
921;DHT22;447;51.332;6.778;2023-02-23T11:45:15;10.80;99.90
921;DHT22;447;51.332;6.778;2023-02-23T11:47:46;10.80;99.90
921;DHT22;447;51.332;6.778;2023-02-23T11:53:15;10.80;99.90
921;DHT22;447;51.332;6.778;2023-02-23T11:55:48;10.80;99.90
921;DHT22;447;51.332;6.778;2023-02-23T12:01:04;10.80;99.90
921;DHT22;447;51.332;6.778;2023-02-23T12:03:47;10.80;99.90
921;DHT22;447;51.332;6.778;2023-02-23T12:12:03;10.80;99.90
921;DHT22;447;51.332;6.778;2023-02-23T12:14:37;10.80;99.90
921;DHT22;447;51.332;6.778;2023-02-23T12:17:28;10.80;99.90
921;DHT22;447;51.332;6.778;2023-02-23T12:22:42;10.80;99.90
921;DHT22;447;51.332;6.778;2023-02-23T12:28:36;10.80;99.90
921;DHT22;447;51.332;6.778;2023-02-23T12:33:45;10.80;99.90
921;DHT22;447;51.332;6.778;2023-02-23T12:38:58;10.70;99.90
921;DHT22;447;51.332;6.778;2023-02-23T12:47:34;10.70;99.90
921;DHT22;447;51.332;6.778;2023-02-23T12:50:05;10.70;99.90
921;DHT22;447;51.332;6.778;2023-02-23T12:58:42;10.70;99.90
921;DHT22;447;51.332;6.778;2023-02-23T13:04:07;10.70;99.90
921;DHT22;447;51.332;6.778;2023-02-23T13:07:12;10.70;99.90
921;DHT22;447;51.332;6.778;2023-02-23T13:18:05;10.70;99.90
921;DHT22;447;51.332;6.778;2023-02-23T13:20:42;10.70;99.90
921;DHT22;447;51.332;6.778;2023-02-23T13:23:33;10.70;99.90
921;DHT22;447;51.332;6.778;2023-02-23T13:26:22;10.70;99.90
921;DHT22;447;51.332;6.778;2023-02-23T13:31:30;10.70;99.90
921;DHT22;447;51.332;6.778;2023-02-23T13:34:02;10.80;99.90
921;DHT22;447;51.332;6.778;2023-02-23T13:36:31;10.80;99.90
921;DHT22;447;51.332;6.778;2023-02-23T13:41:38;10.80;99.90
921;DHT22;447;51.332;6.778;2023-02-23T13:44:51;10.80;99.90
921;DHT22;447;51.332;6.778;2023-02-23T13:47:21;10.80;99.90
921;DHT22;447;51.332;6.778;2023-02-23T13:52:41;10.80;99.90
921;DHT22;447;51.332;6.778;2023-02-23T13:58:28;10.80;99.90
921;DHT22;447;51.332;6.778;2023-02-23T14:01:12;10.80;99.90
921;DHT22;447;51.332;6.778;2023-02-23T14:03:45;10.80;99.90
921;DHT22;447;51.332;6.778;2023-02-23T14:06:17;10.80;99.90
921;DHT22;447;51.332;6.778;2023-02-23T14:08:49;10.80;99.90
921;DHT22;447;51.332;6.778;2023-02-23T14:11:39;10.70;99.90
921;DHT22;447;51.332;6.778;2023-02-23T14:19:38;10.70;99.90
921;DHT22;447;51.332;6.778;2023-02-23T14:22:12;10.70;99.90
921;DHT22;447;51.332;6.778;2023-02-23T14:24:39;10.70;99.90
921;DHT22;447;51.332;6.778;2023-02-23T14:27:23;10.70;99.90
921;DHT22;447;51.332;6.778;2023-02-23T14:30:26;10.60;99.90
921;DHT22;447;51.332;6.778;2023-02-23T14:32:53;10.70;99.90
921;DHT22;447;51.332;6.778;2023-02-23T14:38:30;10.60;99.90
921;DHT22;447;51.332;6.778;2023-02-23T14:40:59;10.60;99.90
921;DHT22;447;51.332;6.778;2023-02-23T14:46:09;10.60;99.90
921;DHT22;447;51.332;6.778;2023-02-23T14:48:42;10.60;99.90
921;DHT22;447;51.332;6.778;2023-02-23T14:51:27;10.60;99.90
921;DHT22;447;51.332;6.778;2023-02-23T14:53:58;10.60;99.90
921;DHT22;447;51.332;6.778;2023-02-23T14:56:27;10.60;99.90
921;DHT22;447;51.332;6.778;2023-02-23T14:58:57;10.50;99.90
921;DHT22;447;51.332;6.778;2023-02-23T15:01:37;10.50;99.90
921;DHT22;447;51.332;6.778;2023-02-23T15:04:12;10.50;99.90
921;DHT22;447;51.332;6.778;2023-02-23T15:06:39;10.50;99.90
921;DHT22;447;51.332;6.778;2023-02-23T15:09:27;10.50;99.90
921;DHT22;447;51.332;6.778;2023-02-23T15:12:02;10.50;99.90
921;DHT22;447;51.332;6.778;2023-02-23T15:14:35;10.50;99.90
921;DHT22;447;51.332;6.778;2023-02-23T15:17:02;10.50;99.90
921;DHT22;447;51.332;6.778;2023-02-23T15:19:31;10.50;99.90
921;DHT22;447;51.332;6.778;2023-02-23T15:22:03;10.50;99.90
921;DHT22;447;51.332;6.778;2023-02-23T15:24:46;10.50;99.90
921;DHT22;447;51.332;6.778;2023-02-23T15:27:17;10.50;99.90
921;DHT22;447;51.332;6.778;2023-02-23T15:29:44;10.50;99.90
921;DHT22;447;51.332;6.778;2023-02-23T15:32:16;10.50;99.90
921;DHT22;447;51.332;6.778;2023-02-23T15:34:44;10.50;99.90
921;DHT22;447;51.332;6.778;2023-02-23T15:39:53;10.50;99.90
921;DHT22;447;51.332;6.778;2023-02-23T15:42:30;10.50;99.90
921;DHT22;447;51.332;6.778;2023-02-23T15:45:04;10.50;99.90
921;DHT22;447;51.332;6.778;2023-02-23T15:47:36;10.50;99.90
921;DHT22;447;51.332;6.778;2023-02-23T15:50:16;10.50;99.90
921;DHT22;447;51.332;6.778;2023-02-23T15:52:50;10.50;99.90
921;DHT22;447;51.332;6.778;2023-02-23T15:55:28;10.50;99.90
921;DHT22;447;51.332;6.778;2023-02-23T15:58:09;10.50;99.90
921;DHT22;447;51.332;6.778;2023-02-23T16:00:49;10.50;99.90
921;DHT22;447;51.332;6.778;2023-02-23T16:03:25;10.50;99.90
921;DHT22;447;51.332;6.778;2023-02-23T16:06:04;10.50;99.90
921;DHT22;447;51.332;6.778;2023-02-23T16:08:34;10.50;99.90
921;DHT22;447;51.332;6.778;2023-02-23T16:11:10;10.50;99.90
921;DHT22;447;51.332;6.778;2023-02-23T16:13:41;10.50;99.90
921;DHT22;447;51.332;6.778;2023-02-23T16:16:13;10.50;99.90
921;DHT22;447;51.332;6.778;2023-02-23T16:18:52;10.50;99.90
921;DHT22;447;51.332;6.778;2023-02-23T16:21:23;10.50;99.90
921;DHT22;447;51.332;6.778;2023-02-23T16:23:53;10.50;99.90
921;DHT22;447;51.332;6.778;2023-02-23T16:26:40;10.50;99.90
921;DHT22;447;51.332;6.778;2023-02-23T16:29:13;10.50;99.90
921;DHT22;447;51.332;6.778;2023-02-23T16:31:45;10.50;99.90
921;DHT22;447;51.332;6.778;2023-02-23T16:37:02;10.50;99.90
921;DHT22;447;51.332;6.778;2023-02-23T16:39:30;10.50;99.90
921;DHT22;447;51.332;6.778;2023-02-23T16:41:59;10.40;99.90
921;DHT22;447;51.332;6.778;2023-02-23T16:44:27;10.40;99.90
921;DHT22;447;51.332;6.778;2023-02-23T16:47:10;10.50;99.90
921;DHT22;447;51.332;6.778;2023-02-23T16:49:37;10.40;99.90
921;DHT22;447;51.332;6.778;2023-02-23T16:52:14;10.40;99.90
921;DHT22;447;51.332;6.778;2023-02-23T16:54:41;10.40;99.90
921;DHT22;447;51.332;6.778;2023-02-23T16:57:21;10.40;99.90
921;DHT22;447;51.332;6.778;2023-02-23T16:59:53;10.40;99.90
921;DHT22;447;51.332;6.778;2023-02-23T17:02:22;10.40;99.90
921;DHT22;447;51.332;6.778;2023-02-23T17:04:51;10.40;99.90
921;DHT22;447;51.332;6.778;2023-02-23T17:07:19;10.40;99.90
921;DHT22;447;51.332;6.778;2023-02-23T17:09:46;10.40;99.90
921;DHT22;447;51.332;6.778;2023-02-23T17:12:14;10.30;99.90
921;DHT22;447;51.332;6.778;2023-02-23T17:14:48;10.30;99.90
921;DHT22;447;51.332;6.778;2023-02-23T17:17:16;10.40;99.90
921;DHT22;447;51.332;6.778;2023-02-23T17:19:42;10.30;99.90
921;DHT22;447;51.332;6.778;2023-02-23T17:22:11;10.40;99.90
921;DHT22;447;51.332;6.778;2023-02-23T17:24:40;10.40;99.90
921;DHT22;447;51.332;6.778;2023-02-23T17:27:07;10.40;99.90
921;DHT22;447;51.332;6.778;2023-02-23T17:29:33;10.40;99.90
921;DHT22;447;51.332;6.778;2023-02-23T17:31:59;10.50;99.90
921;DHT22;447;51.332;6.778;2023-02-23T17:34:28;10.50;99.90
921;DHT22;447;51.332;6.778;2023-02-23T17:36:56;10.50;99.90
921;DHT22;447;51.332;6.778;2023-02-23T17:39:25;10.50;99.90
921;DHT22;447;51.332;6.778;2023-02-23T17:41:53;10.50;99.90
921;DHT22;447;51.332;6.778;2023-02-23T17:44:21;10.50;99.90
921;DHT22;447;51.332;6.778;2023-02-23T17:46:47;10.50;99.90
921;DHT22;447;51.332;6.778;2023-02-23T17:49:15;10.50;99.90
921;DHT22;447;51.332;6.778;2023-02-23T17:51:44;10.50;99.90
921;DHT22;447;51.332;6.778;2023-02-23T17:54:10;10.50;99.90
921;DHT22;447;51.332;6.778;2023-02-23T17:56:36;10.50;99.90
921;DHT22;447;51.332;6.778;2023-02-23T17:59:04;10.50;99.90
921;DHT22;447;51.332;6.778;2023-02-23T18:01:30;10.50;99.90
921;DHT22;447;51.332;6.778;2023-02-23T18:03:59;10.50;99.90
921;DHT22;447;51.332;6.778;2023-02-23T18:06:27;10.50;99.90
921;DHT22;447;51.332;6.778;2023-02-23T18:08:55;10.50;99.90
921;DHT22;447;51.332;6.778;2023-02-23T18:11:22;10.50;99.90
921;DHT22;447;51.332;6.778;2023-02-23T18:13:48;10.50;99.90
921;DHT22;447;51.332;6.778;2023-02-23T18:16:19;10.50;99.90
921;DHT22;447;51.332;6.778;2023-02-23T18:18:49;10.50;99.90
921;DHT22;447;51.332;6.778;2023-02-23T18:21:18;10.50;99.90
921;DHT22;447;51.332;6.778;2023-02-23T18:23:48;10.50;99.90
921;DHT22;447;51.332;6.778;2023-02-23T18:26:20;10.50;99.90
921;DHT22;447;51.332;6.778;2023-02-23T18:28:51;10.50;99.90
921;DHT22;447;51.332;6.778;2023-02-23T18:31:21;10.50;99.90
921;DHT22;447;51.332;6.778;2023-02-23T18:33:50;10.50;99.90
921;DHT22;447;51.332;6.778;2023-02-23T18:38:49;10.50;99.90
921;DHT22;447;51.332;6.778;2023-02-23T18:41:15;10.50;99.90
921;DHT22;447;51.332;6.778;2023-02-23T18:43:41;10.50;99.90
921;DHT22;447;51.332;6.778;2023-02-23T18:46:13;10.50;99.90
921;DHT22;447;51.332;6.778;2023-02-23T18:48:42;10.50;99.90
921;DHT22;447;51.332;6.778;2023-02-23T18:51:08;10.50;99.90
921;DHT22;447;51.332;6.778;2023-02-23T18:53:41;10.50;99.90
921;DHT22;447;51.332;6.778;2023-02-23T18:56:14;10.50;99.90
921;DHT22;447;51.332;6.778;2023-02-23T18:58:43;10.50;99.90
921;DHT22;447;51.332;6.778;2023-02-23T19:01:11;10.50;99.90
921;DHT22;447;51.332;6.778;2023-02-23T19:03:38;10.50;99.90
921;DHT22;447;51.332;6.778;2023-02-23T19:06:08;10.50;99.90
921;DHT22;447;51.332;6.778;2023-02-23T19:08:42;10.50;99.90
921;DHT22;447;51.332;6.778;2023-02-23T19:11:08;10.50;99.90
921;DHT22;447;51.332;6.778;2023-02-23T19:13:37;10.50;99.90
921;DHT22;447;51.332;6.778;2023-02-23T19:16:06;10.50;99.90
921;DHT22;447;51.332;6.778;2023-02-23T19:18:34;10.50;99.90
921;DHT22;447;51.332;6.778;2023-02-23T19:21:05;10.50;99.90
921;DHT22;447;51.332;6.778;2023-02-23T19:23:31;10.50;99.90
921;DHT22;447;51.332;6.778;2023-02-23T19:25:59;10.50;99.90
921;DHT22;447;51.332;6.778;2023-02-23T19:28:30;10.50;99.90
921;DHT22;447;51.332;6.778;2023-02-23T19:31:03;10.50;99.90
921;DHT22;447;51.332;6.778;2023-02-23T19:33:30;10.50;99.90
921;DHT22;447;51.332;6.778;2023-02-23T19:35:56;10.50;99.90
921;DHT22;447;51.332;6.778;2023-02-23T19:38:22;10.50;99.90
921;DHT22;447;51.332;6.778;2023-02-23T19:40:48;10.50;99.90